createdAt,value
2022-10-19T00:03:38.351Z,12.90
2022-10-19T00:07:46.542Z,19.30
2022-10-19T00:11:54.976Z,13.50
2022-10-19T00:16:04.212Z,14.40
2022-10-19T00:20:14.994Z,12.60
2022-10-19T00:24:22.878Z,14.10
2022-10-19T00:28:30.994Z,15.10
2022-10-19T00:32:38.820Z,14.50
2022-10-19T00:36:46.934Z,16.10
2022-10-19T00:40:55.061Z,15.80
2022-10-19T00:45:08.312Z,17.70
2022-10-19T00:49:17.877Z,19.00
2022-10-19T00:53:27.962Z,18.60
2022-10-19T00:57:36.558Z,16.50
2022-10-19T01:01:44.919Z,18.80
2022-10-19T01:05:54.043Z,19.00
2022-10-19T01:10:02.512Z,16.80
2022-10-19T01:14:20.275Z,17.30
2022-10-19T01:18:31.842Z,20.90
2022-10-19T01:22:52.298Z,22.00
2022-10-19T01:27:33.077Z,23.50
2022-10-19T01:31:46.278Z,17.60
2022-10-19T01:36:02.705Z,22.70
2022-10-19T01:40:13.378Z,21.00
2022-10-19T01:44:29.510Z,18.50
2022-10-19T01:48:38.988Z,19.70
2022-10-19T01:52:46.566Z,19.30
2022-10-19T01:56:57.665Z,19.80
2022-10-19T02:01:08.621Z,20.80
2022-10-19T02:05:16.468Z,17.50
2022-10-19T02:09:25.105Z,16.70
2022-10-19T02:13:33.656Z,19.80
2022-10-19T02:17:44.167Z,17.90
2022-10-19T02:21:52.118Z,18.60
2022-10-19T02:25:59.812Z,20.90
2022-10-19T02:30:09.203Z,20.00
2022-10-19T02:34:17.217Z,18.70
2022-10-19T02:38:25.539Z,18.80
2022-10-19T02:42:36.974Z,18.50
2022-10-19T02:46:47.875Z,19.50
2022-10-19T02:50:55.931Z,19.90
2022-10-19T02:55:04.032Z,19.30
2022-10-19T02:59:11.548Z,19.20
2022-10-19T03:03:19.395Z,17.20
2022-10-19T03:07:27.217Z,19.20
2022-10-19T03:11:37.997Z,21.20
2022-10-19T03:15:45.578Z,18.00
2022-10-19T03:19:53.928Z,19.80
2022-10-19T03:24:03.030Z,19.10
2022-10-19T03:28:11.237Z,22.30
2022-10-19T03:32:18.698Z,26.30
2022-10-19T03:36:28.839Z,19.30
2022-10-19T03:40:36.942Z,20.00
2022-10-19T03:44:44.740Z,20.20
2022-10-19T03:48:53.365Z,21.20
2022-10-19T03:53:01.028Z,20.80
2022-10-19T03:57:08.625Z,21.40
2022-10-19T04:01:19.184Z,20.60
2022-10-19T04:05:27.148Z,20.50
2022-10-19T04:09:35.372Z,20.60
2022-10-19T04:13:49.635Z,21.40
2022-10-19T04:17:56.873Z,19.70
2022-10-19T04:22:05.184Z,19.10
2022-10-19T04:26:14.458Z,19.10
2022-10-19T04:30:23.429Z,19.90
2022-10-19T04:34:36.355Z,17.60
2022-10-19T04:38:47.639Z,22.20
2022-10-19T04:42:55.575Z,19.20
2022-10-19T04:47:05.489Z,18.30
2022-10-19T04:51:14.449Z,20.20
2022-10-19T04:55:23.615Z,18.70
2022-10-19T04:59:32.291Z,20.00
2022-10-19T05:03:41.519Z,16.40
2022-10-19T05:07:52.199Z,12.80
2022-10-19T05:12:00.212Z,15.50
2022-10-19T05:16:12.593Z,12.40
2022-10-19T05:20:20.374Z,13.70
2022-10-19T05:24:28.526Z,15.00
2022-10-19T05:28:36.962Z,12.50
2022-10-19T05:32:44.583Z,14.00
2022-10-19T05:36:52.726Z,12.90
2022-10-19T05:41:00.301Z,12.10
2022-10-19T05:45:09.231Z,12.20
2022-10-19T05:49:17.989Z,12.80
2022-10-19T05:53:25.761Z,11.20
2022-10-19T05:57:35.377Z,13.00
2022-10-19T06:01:43.746Z,12.80
2022-10-19T06:05:52.712Z,16.40
2022-10-19T06:10:00.394Z,12.80
2022-10-19T06:14:17.916Z,14.60
2022-10-19T06:18:26.235Z,12.10
2022-10-19T06:22:34.334Z,15.00
2022-10-19T06:26:42.004Z,11.20
2022-10-19T06:30:51.697Z,11.80
2022-10-19T06:35:01.597Z,11.90
2022-10-19T06:39:09.397Z,11.40
2022-10-19T06:43:21.562Z,13.80
2022-10-19T06:47:33.627Z,9.60
2022-10-19T06:51:42.200Z,12.40
2022-10-19T06:55:49.794Z,11.80
2022-10-19T06:59:57.457Z,11.00
2022-10-19T07:04:05.469Z,11.30
2022-10-19T07:08:23.000Z,11.00
2022-10-19T07:12:32.122Z,11.90
2022-10-19T07:16:39.624Z,14.10
2022-10-19T07:20:57.582Z,10.30
2022-10-19T07:25:05.828Z,10.50
2022-10-19T07:29:13.697Z,10.30
2022-10-19T07:33:25.900Z,9.30
2022-10-19T07:37:34.889Z,9.60
2022-10-19T07:41:43.830Z,7.10
2022-10-19T07:45:51.512Z,9.10
2022-10-19T07:49:59.196Z,10.40
2022-10-19T07:54:07.491Z,9.30
2022-10-19T07:58:16.214Z,7.80
2022-10-19T08:02:30.819Z,7.70
2022-10-19T08:06:47.929Z,8.70
2022-10-19T08:10:55.720Z,11.10
2022-10-19T08:15:03.538Z,9.60
2022-10-19T08:19:17.519Z,9.10
2022-10-19T08:23:28.264Z,8.50
2022-10-19T08:27:40.187Z,6.90
2022-10-19T08:31:49.515Z,8.30
2022-10-19T08:35:57.046Z,6.60
2022-10-19T08:40:05.100Z,14.10
2022-10-19T08:44:29.090Z,6.50
2022-10-19T08:48:39.661Z,7.20
2022-10-19T08:52:51.919Z,7.30
2022-10-19T08:57:07.483Z,7.40
2022-10-19T09:01:21.332Z,9.30
2022-10-19T09:05:37.418Z,9.10
2022-10-19T09:09:51.002Z,7.00
2022-10-19T09:14:06.060Z,7.20
2022-10-19T09:18:16.581Z,7.30
2022-10-19T09:22:29.497Z,7.80
2022-10-19T09:26:48.351Z,5.80
2022-10-19T09:30:57.374Z,7.80
2022-10-19T09:35:06.588Z,7.90
2022-10-19T09:39:16.169Z,7.40
2022-10-19T09:43:25.649Z,7.70
2022-10-19T09:47:37.855Z,8.30
2022-10-19T09:51:51.946Z,6.30
2022-10-19T09:56:04.778Z,7.50
2022-10-19T10:00:20.846Z,9.00
2022-10-19T10:04:30.455Z,6.80
2022-10-19T10:08:41.951Z,7.10
2022-10-19T10:12:51.741Z,8.60
2022-10-19T10:17:05.070Z,10.20
2022-10-19T10:21:25.439Z,7.60
2022-10-19T10:25:36.591Z,6.80
2022-10-19T10:29:58.002Z,6.60
2022-10-19T10:34:16.582Z,11.30
2022-10-19T10:38:37.467Z,7.40
2022-10-19T10:42:47.400Z,7.20
2022-10-19T10:46:57.451Z,9.50
2022-10-19T10:51:07.176Z,7.00
2022-10-19T10:55:21.103Z,7.00
2022-10-19T10:59:32.260Z,6.70
2022-10-19T11:03:41.273Z,6.90
2022-10-19T11:07:52.192Z,7.00
2022-10-19T11:12:01.419Z,6.70
2022-10-19T11:16:15.237Z,5.00
2022-10-19T11:20:25.583Z,6.00
2022-10-19T11:24:43.876Z,6.10
2022-10-19T11:29:04.311Z,5.50
2022-10-19T11:33:21.526Z,3.90
2022-10-19T11:37:32.263Z,5.00
2022-10-19T11:41:46.988Z,3.90
2022-10-19T11:46:04.084Z,5.10
2022-10-19T11:50:31.088Z,7.40
2022-10-19T11:54:50.367Z,4.50
2022-10-19T11:59:03.239Z,4.20
2022-10-19T12:03:43.493Z,6.00
2022-10-19T12:08:03.003Z,5.10
2022-10-19T12:12:21.407Z,6.30
2022-10-19T12:16:39.022Z,6.80
2022-10-19T12:20:49.329Z,6.70
2022-10-19T12:24:58.989Z,5.00
2022-10-19T12:29:16.613Z,5.90
2022-10-19T12:33:27.827Z,7.20
2022-10-19T12:37:41.355Z,5.90
2022-10-19T12:41:53.471Z,5.80
2022-10-19T12:46:12.769Z,5.70
2022-10-19T12:50:58.383Z,7.70
2022-10-19T12:55:25.227Z,4.80
2022-10-19T12:59:35.260Z,6.30
2022-10-19T13:03:45.272Z,4.90
2022-10-19T13:07:54.501Z,5.10
2022-10-19T13:12:44.274Z,6.20
2022-10-19T13:17:06.516Z,11.40
2022-10-19T13:21:14.453Z,5.90
2022-10-19T13:25:29.749Z,4.40
2022-10-19T13:29:45.034Z,5.20
2022-10-19T13:33:57.373Z,5.50
2022-10-19T13:38:28.334Z,4.90
2022-10-19T13:42:36.292Z,9.30
2022-10-19T13:46:52.701Z,5.70
2022-10-19T13:51:02.981Z,6.40
2022-10-19T13:55:49.559Z,7.30
2022-10-19T14:00:07.805Z,5.70
2022-10-19T14:04:25.650Z,7.00
2022-10-19T14:08:51.378Z,5.80
2022-10-19T14:12:59.952Z,6.60
2022-10-19T14:21:37.011Z,9.40
2022-10-19T14:25:53.111Z,9.40
2022-10-19T14:30:00.846Z,7.50
2022-10-19T14:34:11.732Z,7.80
2022-10-19T14:38:22.773Z,8.80
2022-10-19T14:42:39.679Z,10.70
2022-10-19T14:46:50.340Z,10.00
2022-10-19T14:50:59.971Z,7.10
2022-10-19T14:55:14.088Z,7.70
2022-10-19T14:59:28.660Z,7.30
2022-10-19T15:03:40.216Z,6.60
2022-10-19T15:07:51.416Z,8.60
2022-10-19T15:12:02.682Z,7.90
2022-10-19T15:16:31.929Z,7.30
2022-10-19T15:20:54.964Z,12.40
2022-10-19T15:25:32.890Z,6.90
2022-10-19T15:29:42.063Z,7.50
2022-10-19T15:33:56.246Z,8.20
2022-10-19T15:38:08.577Z,6.70
2022-10-19T15:42:44.546Z,7.40
2022-10-19T15:47:19.847Z,7.40
2022-10-19T15:51:49.978Z,6.30
2022-10-19T15:55:57.768Z,8.20
2022-10-19T16:00:12.582Z,8.30
2022-10-19T16:04:20.119Z,6.60
2022-10-19T16:08:27.669Z,5.80
2022-10-19T16:12:35.694Z,7.70
2022-10-19T16:16:43.701Z,7.90
2022-10-19T16:20:51.994Z,7.10
2022-10-19T16:25:01.125Z,9.70
2022-10-19T16:29:08.828Z,9.50
2022-10-19T16:33:18.185Z,10.10
2022-10-19T16:37:27.808Z,7.20
2022-10-19T16:41:35.780Z,7.00
2022-10-19T16:45:46.965Z,7.20
2022-10-19T16:50:01.280Z,7.90
2022-10-19T16:54:11.952Z,9.30
2022-10-19T16:58:19.772Z,8.70
2022-10-19T17:02:27.636Z,10.60
2022-10-19T17:06:36.116Z,9.50
2022-10-19T17:10:44.173Z,7.90
2022-10-19T17:14:52.188Z,10.10
2022-10-19T17:19:00.633Z,12.50
2022-10-19T17:23:08.561Z,11.90
2022-10-19T17:27:16.498Z,8.50
2022-10-19T17:31:24.956Z,9.00
2022-10-19T17:35:33.077Z,8.50
2022-10-19T17:39:41.167Z,10.30
2022-10-19T17:43:52.037Z,8.30
2022-10-19T17:48:01.130Z,9.90
2022-10-19T17:52:09.549Z,10.30
2022-10-19T17:56:19.288Z,11.40
2022-10-19T18:00:27.121Z,10.30
2022-10-19T18:08:45.585Z,12.40
2022-10-19T18:12:53.835Z,11.30
2022-10-19T18:17:02.703Z,13.30
2022-10-19T18:21:13.279Z,10.50
2022-10-19T18:25:25.844Z,13.70
2022-10-19T18:29:39.353Z,15.30
2022-10-19T18:33:50.856Z,12.90
2022-10-19T18:37:58.571Z,15.60
2022-10-19T18:42:07.089Z,16.20
2022-10-19T18:46:16.236Z,23.20
2022-10-19T18:50:28.578Z,25.10
2022-10-19T18:54:41.357Z,16.50
2022-10-19T18:58:56.590Z,15.00
2022-10-19T19:03:07.453Z,14.90
2022-10-19T19:07:19.637Z,16.20
2022-10-19T19:11:33.104Z,20.50
2022-10-19T19:15:45.328Z,22.30
2022-10-19T19:19:53.112Z,19.50
2022-10-19T19:24:02.692Z,16.10
2022-10-19T19:28:12.890Z,15.20
2022-10-19T19:32:21.221Z,14.80
2022-10-19T19:36:28.652Z,15.30
2022-10-19T19:40:39.606Z,17.20
2022-10-19T19:44:47.569Z,16.30
2022-10-19T19:49:02.959Z,15.30
2022-10-19T19:53:11.192Z,13.60
2022-10-19T19:57:18.871Z,14.00
2022-10-19T20:01:27.436Z,18.40
2022-10-19T20:05:36.047Z,15.10
2022-10-19T20:09:44.278Z,12.20
2022-10-19T20:13:52.463Z,13.40
2022-10-19T20:18:00.561Z,14.50
2022-10-19T20:22:08.064Z,18.10
2022-10-19T20:26:19.836Z,18.40
2022-10-19T20:30:27.702Z,22.30
2022-10-19T20:34:37.967Z,17.90
2022-10-19T20:38:49.188Z,16.60
2022-10-19T20:42:57.714Z,15.70
2022-10-19T20:47:05.211Z,15.90
2022-10-19T20:51:15.838Z,14.40
2022-10-19T20:55:23.373Z,16.70
2022-10-19T20:59:33.749Z,15.40
2022-10-19T21:03:42.695Z,17.40
2022-10-19T21:07:50.816Z,16.90
2022-10-19T21:11:58.538Z,16.10
2022-10-19T21:16:13.483Z,14.20
2022-10-19T21:20:20.940Z,17.70
2022-10-19T21:24:32.334Z,15.30
2022-10-19T21:28:41.662Z,12.90
2022-10-19T21:32:50.969Z,17.00
2022-10-19T21:36:59.383Z,17.00
2022-10-19T21:41:09.725Z,18.50
2022-10-19T21:45:29.994Z,15.30
2022-10-19T21:49:38.660Z,16.10
2022-10-19T21:53:47.182Z,15.00
2022-10-19T21:57:54.761Z,15.20
2022-10-19T22:02:02.599Z,14.40
2022-10-19T22:06:10.453Z,16.30
2022-10-19T22:10:18.752Z,15.00
2022-10-19T22:14:26.674Z,17.30
2022-10-19T22:18:34.599Z,15.80
2022-10-19T22:22:43.080Z,17.30
2022-10-19T22:26:51.945Z,15.20
2022-10-19T22:31:00.725Z,15.60
2022-10-19T22:35:09.640Z,15.80
2022-10-19T22:39:18.023Z,16.00
2022-10-19T22:43:25.424Z,14.10
2022-10-19T22:47:32.726Z,15.80
2022-10-19T22:51:40.393Z,20.00
2022-10-19T22:55:47.905Z,15.20
2022-10-19T22:59:55.625Z,13.30
2022-10-19T23:04:03.282Z,13.10
2022-10-19T23:08:10.976Z,16.10
2022-10-19T23:12:18.353Z,17.50
2022-10-19T23:20:38.392Z,14.00
2022-10-19T23:24:45.977Z,14.10
2022-10-19T23:28:53.848Z,13.10
2022-10-19T23:33:01.423Z,15.60
2022-10-19T23:37:09.037Z,17.00
2022-10-19T23:41:17.413Z,20.00
2022-10-19T23:45:25.175Z,20.70
2022-10-19T23:49:33.389Z,18.90
2022-10-19T23:53:43.170Z,21.60
2022-10-19T23:57:51.338Z,22.10
